createdAt,value
2023-03-30T00:01:02.291Z,8.05
2023-03-30T00:03:30.028Z,8.40
2023-03-30T00:06:02.700Z,14.48
2023-03-30T00:08:30.130Z,11.07
2023-03-30T00:11:06.164Z,10.25
2023-03-30T00:13:35.316Z,8.00
2023-03-30T00:16:05.044Z,8.23
2023-03-30T00:18:34.367Z,7.72
2023-03-30T00:21:04.833Z,8.20
2023-03-30T00:23:32.641Z,7.22
2023-03-30T00:25:59.927Z,7.72
2023-03-30T00:28:30.553Z,8.50
2023-03-30T00:30:59.135Z,8.43
2023-03-30T00:33:41.334Z,7.82
2023-03-30T00:36:12.105Z,7.88
2023-03-30T00:38:40.452Z,9.10
2023-03-30T00:41:07.922Z,8.40
2023-03-30T00:43:35.397Z,7.82
2023-03-30T00:46:02.732Z,7.78
2023-03-30T00:48:36.797Z,8.73
2023-03-30T00:51:09.670Z,7.75
2023-03-30T00:53:44.127Z,7.28
2023-03-30T00:56:14.037Z,7.40
2023-03-30T00:58:43.610Z,7.47
2023-03-30T01:01:14.536Z,7.95
2023-03-30T01:03:47.951Z,8.18
2023-03-30T01:06:21.852Z,8.07
2023-03-30T01:08:50.846Z,8.52
2023-03-30T01:11:18.259Z,8.38
2023-03-30T01:13:47.851Z,8.93
2023-03-30T01:16:33.429Z,9.35
2023-03-30T01:19:29.537Z,8.73
2023-03-30T01:22:14.719Z,9.52
2023-03-30T01:25:07.429Z,10.35
2023-03-30T01:27:57.475Z,10.82
2023-03-30T01:30:54.987Z,10.60
2023-03-30T01:33:59.412Z,9.70
2023-03-30T01:36:35.797Z,10.70
2023-03-30T01:39:15.743Z,10.05
2023-03-30T01:42:01.518Z,10.75
2023-03-30T01:44:42.852Z,10.57
2023-03-30T01:47:19.259Z,10.32
2023-03-30T01:50:05.569Z,9.75
2023-03-30T01:53:00.272Z,10.63
2023-03-30T01:55:44.060Z,11.48
2023-03-30T01:58:31.357Z,10.20
2023-03-30T02:01:01.545Z,11.00
2023-03-30T02:03:32.524Z,11.00
2023-03-30T02:06:10.551Z,11.48
2023-03-30T02:08:39.222Z,11.70
2023-03-30T02:11:07.662Z,11.98
2023-03-30T02:13:37.765Z,11.05
2023-03-30T02:16:16.459Z,11.20
2023-03-30T02:18:46.438Z,12.55
2023-03-30T02:21:13.866Z,11.35
2023-03-30T02:23:45.276Z,12.00
2023-03-30T02:26:13.566Z,11.43
2023-03-30T02:28:40.977Z,11.00
2023-03-30T02:31:16.953Z,11.38
2023-03-30T02:34:16.817Z,11.48
2023-03-30T02:37:28.908Z,11.43
2023-03-30T02:39:58.895Z,11.98
2023-03-30T02:42:32.535Z,10.88
2023-03-30T02:45:22.822Z,11.45
2023-03-30T02:48:18.341Z,11.20
2023-03-30T02:50:56.485Z,11.88
2023-03-30T02:54:01.537Z,11.40
2023-03-30T02:56:57.958Z,11.90
2023-03-30T02:59:34.144Z,12.02
2023-03-30T03:04:34.980Z,10.90
2023-03-30T03:07:24.468Z,12.32
2023-03-30T03:09:51.948Z,12.57
2023-03-30T03:12:19.679Z,12.27
2023-03-30T03:14:47.762Z,12.77
2023-03-30T03:17:22.070Z,12.68
2023-03-30T03:19:49.873Z,12.02
2023-03-30T03:22:19.245Z,13.02
2023-03-30T03:24:46.793Z,12.75
2023-03-30T03:27:43.821Z,11.32
2023-03-30T03:30:20.352Z,13.00
2023-03-30T03:32:58.038Z,12.45
2023-03-30T03:35:27.479Z,11.57
2023-03-30T03:37:54.699Z,12.75
2023-03-30T03:40:21.955Z,13.55
2023-03-30T03:42:51.838Z,12.75
2023-03-30T03:45:19.390Z,14.30
2023-03-30T03:47:59.533Z,13.90
2023-03-30T03:50:43.788Z,15.10
2023-03-30T03:53:12.392Z,16.23
2023-03-30T03:55:39.630Z,15.90
2023-03-30T03:58:07.939Z,16.38
2023-03-30T04:00:36.602Z,16.95
2023-03-30T04:03:05.084Z,18.17
2023-03-30T04:05:32.538Z,17.52
2023-03-30T04:08:00.094Z,17.75
2023-03-30T04:10:27.847Z,17.23
2023-03-30T04:13:13.090Z,17.38
2023-03-30T04:15:50.440Z,18.02
2023-03-30T04:18:36.429Z,18.98
2023-03-30T04:21:32.001Z,18.70
2023-03-30T04:24:16.022Z,18.75
2023-03-30T04:27:09.574Z,19.45
2023-03-30T04:30:02.071Z,20.27
2023-03-30T04:33:02.360Z,19.58
2023-03-30T04:35:48.102Z,19.88
2023-03-30T04:38:31.024Z,18.83
2023-03-30T04:41:18.490Z,19.77
2023-03-30T04:44:10.309Z,18.63
2023-03-30T04:46:57.611Z,19.48
2023-03-30T04:49:51.442Z,16.50
2023-03-30T04:52:51.133Z,15.50
2023-03-30T04:55:41.818Z,14.98
2023-03-30T04:58:22.051Z,14.88
2023-03-30T05:01:10.286Z,13.95
2023-03-30T05:04:04.030Z,15.38
2023-03-30T05:06:51.666Z,15.50
2023-03-30T05:09:41.167Z,16.58
2023-03-30T05:12:46.919Z,16.45
2023-03-30T05:16:05.514Z,16.50
2023-03-30T05:18:41.800Z,16.67
2023-03-30T05:21:32.698Z,16.42
2023-03-30T05:24:39.048Z,16.00
2023-03-30T05:27:13.472Z,16.10
2023-03-30T05:30:04.093Z,16.30
2023-03-30T05:33:00.400Z,18.90
2023-03-30T05:35:42.587Z,18.50
2023-03-30T05:38:18.487Z,17.70
2023-03-30T05:40:54.087Z,17.37
2023-03-30T05:43:32.777Z,19.45
2023-03-30T05:46:35.634Z,18.90
2023-03-30T05:49:28.139Z,19.92
2023-03-30T05:52:12.408Z,21.00
2023-03-30T05:55:09.140Z,18.65
2023-03-30T05:57:56.922Z,19.98
2023-03-30T06:00:47.511Z,19.50
2023-03-30T06:03:24.506Z,21.15
2023-03-30T06:05:53.961Z,19.80
2023-03-30T06:08:22.850Z,19.90
2023-03-30T06:10:56.173Z,18.98
2023-03-30T06:13:25.669Z,19.05
2023-03-30T06:15:53.536Z,17.58
2023-03-30T06:18:23.693Z,17.40
2023-03-30T06:21:02.192Z,20.08
2023-03-30T06:23:30.377Z,20.27
2023-03-30T06:26:01.994Z,20.23
2023-03-30T06:28:33.236Z,19.13
2023-03-30T06:31:03.150Z,22.27
2023-03-30T06:33:31.510Z,22.83
2023-03-30T06:36:01.825Z,22.20
2023-03-30T06:38:29.530Z,21.48
2023-03-30T06:41:00.298Z,20.77
2023-03-30T06:43:29.071Z,20.20
2023-03-30T06:46:15.810Z,21.50
2023-03-30T06:48:46.868Z,21.40
2023-03-30T06:51:36.606Z,21.73
2023-03-30T06:54:05.481Z,21.42
2023-03-30T06:56:33.808Z,21.20
2023-03-30T06:59:07.710Z,22.52
2023-03-30T07:01:55.534Z,21.08
2023-03-30T07:04:39.551Z,22.48
2023-03-30T07:07:20.923Z,22.23
2023-03-30T07:09:49.361Z,22.75
2023-03-30T07:12:16.727Z,23.17
2023-03-30T07:14:45.878Z,23.42
2023-03-30T07:17:13.291Z,22.55
2023-03-30T07:19:40.690Z,22.27
2023-03-30T07:22:09.774Z,21.25
2023-03-30T07:24:37.444Z,21.75
2023-03-30T07:27:04.999Z,21.70
2023-03-30T07:29:33.752Z,21.80
2023-03-30T07:32:01.618Z,20.40
2023-03-30T07:34:29.665Z,22.60
2023-03-30T07:36:58.601Z,21.50
2023-03-30T07:39:30.106Z,20.80
2023-03-30T07:41:58.494Z,21.73
2023-03-30T07:44:29.189Z,19.80
2023-03-30T07:46:58.495Z,21.45
2023-03-30T07:49:27.035Z,22.27
2023-03-30T07:51:54.980Z,23.15
2023-03-30T07:54:27.587Z,23.02
2023-03-30T07:57:13.443Z,22.58
2023-03-30T07:59:41.567Z,21.90
2023-03-30T08:02:29.106Z,21.60
2023-03-30T08:04:57.120Z,22.05
2023-03-30T08:07:32.473Z,21.73
2023-03-30T08:10:09.029Z,21.45
2023-03-30T08:12:37.737Z,22.83
2023-03-30T08:15:05.559Z,21.08
2023-03-30T08:17:32.825Z,20.13
2023-03-30T08:20:01.671Z,22.40
2023-03-30T08:22:28.930Z,22.73
2023-03-30T08:24:57.066Z,21.10
2023-03-30T08:27:24.418Z,21.80
2023-03-30T08:29:54.322Z,22.73
2023-03-30T08:32:21.576Z,23.23
2023-03-30T08:34:48.879Z,21.80
2023-03-30T08:37:22.728Z,21.33
2023-03-30T08:39:50.064Z,18.13
2023-03-30T08:42:27.280Z,17.73
2023-03-30T08:58:50.805Z,16.02
2023-03-30T09:01:36.547Z,15.27
2023-03-30T09:04:38.055Z,15.57
2023-03-30T09:07:39.580Z,15.20
2023-03-30T09:10:12.733Z,15.82
2023-03-30T09:12:43.843Z,15.52
2023-03-30T09:15:19.433Z,15.90
2023-03-30T09:17:52.438Z,15.52
2023-03-30T09:20:24.722Z,16.23
2023-03-30T09:22:54.665Z,15.68
2023-03-30T09:25:40.702Z,15.50
2023-03-30T09:28:31.380Z,14.93
2023-03-30T09:31:21.930Z,14.63
2023-03-30T09:34:21.836Z,15.73
2023-03-30T09:37:11.822Z,15.32
2023-03-30T09:39:41.198Z,15.30
2023-03-30T09:42:27.163Z,15.32
2023-03-30T09:45:19.522Z,15.65
2023-03-30T09:47:47.003Z,15.82
2023-03-30T09:50:22.568Z,15.50
2023-03-30T09:52:59.440Z,15.52
2023-03-30T09:55:57.356Z,15.27
2023-03-30T09:58:33.292Z,14.55
2023-03-30T10:01:05.910Z,15.45
2023-03-30T10:03:35.322Z,15.38
2023-03-30T10:06:19.633Z,15.32
2023-03-30T10:08:55.370Z,15.80
2023-03-30T10:11:50.933Z,15.32
2023-03-30T10:14:29.339Z,16.13
2023-03-30T10:17:00.890Z,14.55
2023-03-30T10:19:29.571Z,16.25
2023-03-30T10:21:59.023Z,15.23
2023-03-30T10:24:29.396Z,15.55
2023-03-30T10:26:59.707Z,15.63
2023-03-30T10:29:36.305Z,15.15
2023-03-30T10:32:17.698Z,14.55
2023-03-30T10:34:49.084Z,14.10
2023-03-30T10:37:22.991Z,14.98
2023-03-30T10:39:52.290Z,14.25
2023-03-30T10:42:25.145Z,13.93
2023-03-30T10:44:59.262Z,13.20
2023-03-30T10:47:32.472Z,14.95
2023-03-30T10:50:15.179Z,14.85
2023-03-30T10:53:17.237Z,14.68
2023-03-30T10:56:03.414Z,15.23
2023-03-30T10:59:11.185Z,14.68
2023-03-30T11:01:49.016Z,14.90
2023-03-30T11:04:43.583Z,14.20
2023-03-30T11:07:21.000Z,13.82
2023-03-30T11:09:58.583Z,13.45
2023-03-30T11:12:34.105Z,14.05
2023-03-30T11:15:18.120Z,13.95
2023-03-30T11:18:10.449Z,14.43
2023-03-30T11:20:46.058Z,13.80
2023-03-30T11:23:51.495Z,14.00
2023-03-30T11:26:25.224Z,13.77
2023-03-30T11:29:30.286Z,13.77
2023-03-30T11:32:01.100Z,13.93
2023-03-30T11:34:48.510Z,13.75
2023-03-30T11:37:29.847Z,14.10
2023-03-30T11:40:14.518Z,13.98
2023-03-30T11:42:42.451Z,14.20
2023-03-30T11:45:36.415Z,13.77
2023-03-30T11:48:28.268Z,14.00
2023-03-30T11:51:02.361Z,13.30
2023-03-30T11:53:38.795Z,14.02
2023-03-30T11:56:27.152Z,13.27
2023-03-30T11:59:06.526Z,13.13
2023-03-30T12:01:51.868Z,12.65
2023-03-30T12:04:48.950Z,12.30
2023-03-30T12:10:32.376Z,12.52
2023-03-30T12:15:46.733Z,14.25
2023-03-30T12:18:43.405Z,12.82
2023-03-30T12:21:38.348Z,14.95
2023-03-30T12:24:32.370Z,12.93
2023-03-30T12:27:06.129Z,14.27
2023-03-30T12:30:02.466Z,12.77
2023-03-30T12:32:34.708Z,13.30
2023-03-30T12:35:21.955Z,12.90
2023-03-30T12:37:49.287Z,12.50
2023-03-30T12:40:22.466Z,12.32
2023-03-30T12:43:09.975Z,13.23
2023-03-30T12:45:50.799Z,13.93
2023-03-30T12:48:34.550Z,14.05
2023-03-30T12:51:13.803Z,12.43
2023-03-30T12:54:16.833Z,13.10
2023-03-30T12:57:08.619Z,14.98
2023-03-30T12:59:59.070Z,14.85
2023-03-30T13:02:44.702Z,14.27
2023-03-30T13:05:33.509Z,14.80
2023-03-30T13:08:07.907Z,15.38
2023-03-30T13:10:37.626Z,14.07
2023-03-30T13:13:06.015Z,14.68
2023-03-30T13:15:39.272Z,13.93
2023-03-30T13:18:09.304Z,15.70
2023-03-30T13:20:56.537Z,14.80
2023-03-30T13:23:26.976Z,17.38
2023-03-30T13:26:34.686Z,16.55
2023-03-30T13:29:11.590Z,16.88
2023-03-30T13:32:06.987Z,17.38
2023-03-30T13:34:48.952Z,17.90
2023-03-30T13:37:53.525Z,16.33
2023-03-30T13:40:40.314Z,16.10
2023-03-30T13:43:26.994Z,15.65
2023-03-30T13:46:21.937Z,16.58
2023-03-30T13:49:30.048Z,16.45
2023-03-30T13:52:24.857Z,16.02
2023-03-30T13:54:52.485Z,16.25
2023-03-30T13:57:30.352Z,17.85
2023-03-30T14:00:08.125Z,16.63
2023-03-30T14:02:39.799Z,17.20
2023-03-30T14:05:26.241Z,17.33
2023-03-30T14:10:27.491Z,15.25
2023-03-30T14:12:57.111Z,17.05
2023-03-30T14:15:34.922Z,16.30
2023-03-30T14:18:04.651Z,16.75
2023-03-30T14:20:41.205Z,15.40
2023-03-30T14:23:19.151Z,16.02
2023-03-30T14:25:46.662Z,15.95
2023-03-30T14:28:21.928Z,17.38
2023-03-30T14:30:58.610Z,15.27
2023-03-30T14:33:26.472Z,15.77
2023-03-30T14:35:59.134Z,16.88
2023-03-30T14:38:29.942Z,15.77
2023-03-30T14:40:59.710Z,17.02
2023-03-30T14:43:31.734Z,16.80
2023-03-30T14:46:04.943Z,16.63
2023-03-30T14:48:35.334Z,16.27
2023-03-30T14:51:03.631Z,17.25
2023-03-30T14:53:31.391Z,17.25
2023-03-30T14:56:01.288Z,17.15
2023-03-30T14:58:31.647Z,16.02
2023-03-30T15:01:01.271Z,17.63
2023-03-30T15:03:34.424Z,16.17
2023-03-30T15:06:04.943Z,16.55
2023-03-30T15:08:36.488Z,15.35
2023-03-30T15:11:24.143Z,15.13
2023-03-30T15:14:01.594Z,14.95
2023-03-30T15:16:32.737Z,14.32
2023-03-30T15:19:10.177Z,13.80
2023-03-30T15:21:37.907Z,13.07
2023-03-30T15:24:13.023Z,13.80
2023-03-30T15:26:47.712Z,12.73
2023-03-30T15:29:18.173Z,13.50
2023-03-30T15:31:45.531Z,14.93
2023-03-30T15:34:17.540Z,15.15
2023-03-30T15:36:45.531Z,14.43
2023-03-30T15:39:24.985Z,14.85
2023-03-30T15:41:55.969Z,14.48
2023-03-30T15:44:23.498Z,14.85
2023-03-30T15:46:54.624Z,14.77
2023-03-30T15:49:28.069Z,14.68
2023-03-30T15:52:13.688Z,14.98
2023-03-30T15:54:50.623Z,15.10
2023-03-30T15:57:26.698Z,14.75
2023-03-30T16:00:02.968Z,15.40
2023-03-30T16:02:31.841Z,14.55
2023-03-30T16:05:01.986Z,14.13
2023-03-30T16:07:32.137Z,15.43
2023-03-30T16:09:59.386Z,15.35
2023-03-30T16:12:31.183Z,14.73
2023-03-30T16:14:58.785Z,14.23
2023-03-30T16:17:26.312Z,13.18
2023-03-30T16:19:53.560Z,14.93
2023-03-30T16:22:21.041Z,14.65
2023-03-30T16:24:48.429Z,14.52
2023-03-30T16:27:15.801Z,13.65
2023-03-30T16:29:43.366Z,14.07
2023-03-30T16:32:10.706Z,13.88
2023-03-30T16:34:37.974Z,13.57
2023-03-30T16:37:05.358Z,13.73
2023-03-30T16:39:44.670Z,13.60
2023-03-30T16:42:14.361Z,13.25
2023-03-30T16:44:41.642Z,12.73
2023-03-30T16:47:09.560Z,12.52
2023-03-30T16:49:36.784Z,13.10
2023-03-30T16:52:04.115Z,13.32
2023-03-30T16:54:32.989Z,13.70
2023-03-30T16:57:01.567Z,13.13
2023-03-30T16:59:30.555Z,13.00
2023-03-30T17:01:58.754Z,13.15
2023-03-30T17:04:26.542Z,13.50
2023-03-30T17:06:54.617Z,13.20
2023-03-30T17:09:22.192Z,13.18
2023-03-30T17:11:49.903Z,12.48
2023-03-30T17:14:17.228Z,12.68
2023-03-30T17:16:44.618Z,12.77
2023-03-30T17:19:13.394Z,13.30
2023-03-30T17:21:42.829Z,13.18
2023-03-30T17:24:11.117Z,13.07
2023-03-30T17:26:39.410Z,18.52
2023-03-30T17:29:07.216Z,18.05
2023-03-30T17:31:34.507Z,19.55
2023-03-30T17:34:01.821Z,16.85
2023-03-30T17:36:29.238Z,13.88
2023-03-30T17:38:56.745Z,13.43
2023-03-30T17:41:24.043Z,15.48
2023-03-30T17:43:51.468Z,14.82
2023-03-30T17:46:19.897Z,14.02
2023-03-30T17:48:47.618Z,13.10
2023-03-30T17:51:14.877Z,13.75
2023-03-30T17:53:42.721Z,15.05
2023-03-30T17:56:12.711Z,13.95
2023-03-30T17:58:40.325Z,15.32
2023-03-30T18:01:12.857Z,15.27
2023-03-30T18:03:40.696Z,15.65
2023-03-30T18:06:11.474Z,15.43
2023-03-30T18:08:39.567Z,16.23
2023-03-30T18:11:07.187Z,16.70
2023-03-30T18:13:34.985Z,15.10
2023-03-30T18:22:22.241Z,15.45
2023-03-30T18:24:52.242Z,16.27
2023-03-30T18:27:19.611Z,15.77
2023-03-30T18:29:47.989Z,16.35
2023-03-30T18:32:15.299Z,14.95
2023-03-30T18:34:42.755Z,16.40
2023-03-30T18:37:10.505Z,14.38
2023-03-30T18:39:38.898Z,14.43
2023-03-30T18:42:06.318Z,14.32
2023-03-30T18:44:33.632Z,14.65
2023-03-30T18:47:00.918Z,15.15
2023-03-30T18:49:28.331Z,13.88
2023-03-30T18:51:55.782Z,15.63
2023-03-30T18:54:23.039Z,13.85
2023-03-30T18:56:54.009Z,13.90
2023-03-30T18:59:24.774Z,13.35
2023-03-30T19:01:52.240Z,14.45
2023-03-30T19:04:19.849Z,14.77
2023-03-30T19:06:47.663Z,15.15
2023-03-30T19:09:15.029Z,15.82
2023-03-30T19:11:42.292Z,15.70
2023-03-30T19:14:11.940Z,16.55
2023-03-30T19:16:39.367Z,15.52
2023-03-30T19:19:09.665Z,16.70
2023-03-30T19:21:36.899Z,16.33
2023-03-30T19:24:04.823Z,15.20
2023-03-30T19:26:32.809Z,15.80
2023-03-30T19:29:00.834Z,15.57
2023-03-30T19:31:55.089Z,15.38
2023-03-30T19:34:41.906Z,14.70
2023-03-30T19:37:09.186Z,15.35
2023-03-30T19:39:36.735Z,15.30
2023-03-30T19:42:04.421Z,15.10
2023-03-30T19:44:31.652Z,15.70
2023-03-30T19:46:58.918Z,15.45
2023-03-30T19:49:29.590Z,15.07
2023-03-30T19:51:57.068Z,14.90
2023-03-30T19:54:27.552Z,14.55
2023-03-30T19:56:54.936Z,14.65
2023-03-30T19:59:22.368Z,15.43
2023-03-30T20:01:50.054Z,14.80
2023-03-30T20:04:17.348Z,15.73
2023-03-30T20:06:44.606Z,15.85
2023-03-30T20:09:11.941Z,14.55
2023-03-30T20:11:39.643Z,16.65
2023-03-30T20:14:07.381Z,16.45
2023-03-30T20:16:35.213Z,16.70
2023-03-30T20:19:10.792Z,18.80
2023-03-30T20:21:46.679Z,19.10
2023-03-30T20:24:14.110Z,18.20
2023-03-30T20:26:41.583Z,16.52
2023-03-30T20:29:08.903Z,17.70
2023-03-30T20:31:37.782Z,18.67
2023-03-30T20:34:05.269Z,18.13
2023-03-30T20:36:32.740Z,17.15
2023-03-30T20:41:58.095Z,18.35
2023-03-30T20:44:32.218Z,18.60
2023-03-30T20:46:59.695Z,18.00
2023-03-30T20:49:28.841Z,17.52
2023-03-30T20:52:00.748Z,18.90
2023-03-30T20:54:29.314Z,19.08
2023-03-30T20:56:57.133Z,19.10
2023-03-30T20:59:24.924Z,17.48
2023-03-30T21:01:52.329Z,16.90
2023-03-30T21:04:19.964Z,17.30
2023-03-30T21:06:47.694Z,18.58
2023-03-30T21:09:15.175Z,16.55
2023-03-30T21:11:42.609Z,17.98
2023-03-30T21:14:11.692Z,18.08
2023-03-30T21:16:42.140Z,16.80
2023-03-30T21:19:10.315Z,18.40
2023-03-30T21:21:38.389Z,17.83
2023-03-30T21:24:08.759Z,19.00
2023-03-30T21:26:36.891Z,19.27
2023-03-30T21:29:04.991Z,19.10
2023-03-30T21:31:32.902Z,19.23
2023-03-30T21:34:00.292Z,19.55
2023-03-30T21:36:27.673Z,19.45
2023-03-30T21:38:57.466Z,19.90
2023-03-30T21:41:26.114Z,18.65
2023-03-30T21:43:53.581Z,20.60
2023-03-30T21:46:23.211Z,20.33
2023-03-30T21:48:53.730Z,20.40
2023-03-30T21:51:24.596Z,20.42
2023-03-30T21:53:53.631Z,20.88
2023-03-30T21:56:23.512Z,20.85
2023-03-30T21:58:51.324Z,21.25
2023-03-30T22:01:20.254Z,21.17
2023-03-30T22:03:47.605Z,20.63
2023-03-30T22:06:17.154Z,20.25
2023-03-30T22:08:46.082Z,20.77
2023-03-30T22:11:16.592Z,21.63
2023-03-30T22:13:45.818Z,20.52
2023-03-30T22:16:22.442Z,21.48
2023-03-30T22:18:50.634Z,21.73
2023-03-30T22:21:20.883Z,21.73
2023-03-30T22:23:48.188Z,21.67
2023-03-30T22:26:16.007Z,22.15
2023-03-30T22:28:44.003Z,21.00
2023-03-30T22:31:13.917Z,20.00
2023-03-30T22:33:41.552Z,20.77
2023-03-30T22:36:23.728Z,20.98
2023-03-30T22:38:51.840Z,20.45
2023-03-30T22:41:23.696Z,21.75
2023-03-30T22:43:52.656Z,20.27
2023-03-30T22:46:21.666Z,21.38
2023-03-30T22:48:49.858Z,21.88
2023-03-30T22:51:25.888Z,21.50
2023-03-30T22:53:59.210Z,22.30
2023-03-30T22:56:28.277Z,20.15
2023-03-30T22:58:57.627Z,22.05
2023-03-30T23:01:24.989Z,22.05
2023-03-30T23:03:53.539Z,21.70
2023-03-30T23:06:21.404Z,21.30
2023-03-30T23:08:49.146Z,20.27
2023-03-30T23:11:17.087Z,21.27
2023-03-30T23:13:44.737Z,21.80
2023-03-30T23:16:12.065Z,22.77
2023-03-30T23:18:39.827Z,21.67
2023-03-30T23:21:13.976Z,22.52
2023-03-30T23:23:50.638Z,21.90
2023-03-30T23:26:19.549Z,22.20
2023-03-30T23:28:47.044Z,21.38
2023-03-30T23:31:17.677Z,21.90
2023-03-30T23:33:45.438Z,22.40
2023-03-30T23:36:13.655Z,23.45
2023-03-30T23:38:44.331Z,21.95
2023-03-30T23:41:18.500Z,22.33
2023-03-30T23:43:55.646Z,22.20
2023-03-30T23:46:23.656Z,21.27
2023-03-30T23:48:51.334Z,23.02
2023-03-30T23:51:18.614Z,22.23
2023-03-30T23:53:47.155Z,22.08
2023-03-30T23:56:17.064Z,22.48
2023-03-30T23:58:44.914Z,22.60
